createdAt,value
2023-03-18T00:01:35.295Z,2.55
2023-03-18T00:04:04.295Z,2.05
2023-03-18T00:06:32.178Z,2.17
2023-03-18T00:08:59.845Z,2.00
2023-03-18T00:11:28.797Z,2.95
2023-03-18T00:13:56.363Z,2.78
2023-03-18T00:16:24.256Z,2.85
2023-03-18T00:18:52.080Z,2.95
2023-03-18T00:21:19.782Z,2.90
2023-03-18T00:23:48.790Z,2.78
2023-03-18T00:26:17.132Z,2.78
2023-03-18T00:28:46.157Z,2.65
2023-03-18T00:31:14.028Z,3.42
2023-03-18T00:33:45.690Z,3.28
2023-03-18T00:36:14.655Z,3.40
2023-03-18T00:38:46.006Z,3.85
2023-03-18T00:41:15.774Z,4.20
2023-03-18T00:43:52.592Z,3.20
2023-03-18T00:46:23.440Z,4.30
2023-03-18T00:48:52.174Z,6.82
2023-03-18T00:51:22.612Z,11.18
2023-03-18T00:53:52.118Z,14.75
2023-03-18T00:56:22.067Z,17.33
2023-03-18T00:58:52.228Z,14.73
2023-03-18T01:01:20.764Z,10.27
2023-03-18T01:03:50.043Z,8.18
2023-03-18T01:06:20.563Z,5.20
2023-03-18T01:08:48.190Z,3.92
2023-03-18T01:11:16.171Z,4.07
2023-03-18T01:13:44.245Z,3.13
2023-03-18T01:16:13.557Z,3.35
2023-03-18T01:18:41.798Z,2.83
2023-03-18T01:21:10.580Z,2.83
2023-03-18T01:23:39.229Z,2.90
2023-03-18T01:26:07.615Z,2.72
2023-03-18T01:28:35.264Z,3.10
2023-03-18T01:31:03.239Z,2.58
2023-03-18T01:33:33.420Z,2.60
2023-03-18T01:36:03.786Z,2.58
2023-03-18T01:38:31.833Z,2.00
2023-03-18T01:41:00.180Z,2.30
2023-03-18T01:43:30.512Z,2.28
2023-03-18T01:46:00.229Z,2.30
2023-03-18T01:48:30.799Z,2.75
2023-03-18T01:51:02.831Z,2.70
2023-03-18T01:53:36.023Z,2.42
2023-03-18T01:56:05.946Z,2.30
2023-03-18T01:58:38.204Z,3.05
2023-03-18T02:01:10.483Z,3.08
2023-03-18T02:03:41.940Z,2.58
2023-03-18T02:06:12.353Z,2.95
2023-03-18T02:08:41.167Z,2.60
2023-03-18T02:11:10.157Z,2.50
2023-03-18T02:13:41.345Z,2.55
2023-03-18T02:16:14.597Z,3.13
2023-03-18T02:18:46.924Z,2.97
2023-03-18T02:21:29.605Z,3.28
2023-03-18T02:24:09.461Z,2.90
2023-03-18T02:26:52.464Z,2.75
2023-03-18T02:29:22.946Z,3.30
2023-03-18T02:31:51.022Z,2.95
2023-03-18T02:34:19.595Z,3.38
2023-03-18T02:36:47.463Z,3.70
2023-03-18T02:39:16.708Z,4.35
2023-03-18T02:41:45.429Z,3.75
2023-03-18T02:44:13.690Z,4.13
2023-03-18T02:46:53.922Z,3.97
2023-03-18T02:49:23.275Z,3.78
2023-03-18T02:51:53.939Z,3.83
2023-03-18T02:54:23.564Z,4.55
2023-03-18T02:56:51.876Z,4.30
2023-03-18T02:59:20.499Z,3.97
2023-03-18T03:01:52.112Z,3.88
2023-03-18T03:04:22.096Z,4.85
2023-03-18T03:06:50.279Z,4.47
2023-03-18T03:09:18.461Z,3.80
2023-03-18T03:11:48.108Z,3.22
2023-03-18T03:14:17.213Z,4.22
2023-03-18T03:16:45.199Z,4.03
2023-03-18T03:19:14.283Z,3.65
2023-03-18T03:21:42.298Z,4.10
2023-03-18T03:24:10.867Z,3.72
2023-03-18T03:26:38.572Z,4.10
2023-03-18T03:29:07.312Z,4.45
2023-03-18T03:31:35.617Z,4.53
2023-03-18T03:34:04.674Z,4.93
2023-03-18T03:36:33.660Z,4.35
2023-03-18T03:39:01.332Z,5.18
2023-03-18T03:41:28.989Z,4.90
2023-03-18T03:43:56.628Z,5.20
2023-03-18T03:46:24.275Z,5.07
2023-03-18T03:48:51.955Z,4.70
2023-03-18T03:51:19.803Z,4.82
2023-03-18T03:53:48.879Z,4.75
2023-03-18T03:56:17.960Z,3.80
2023-03-18T03:58:45.724Z,5.35
2023-03-18T04:01:13.559Z,3.95
2023-03-18T04:03:41.105Z,3.90
2023-03-18T04:06:09.015Z,4.72
2023-03-18T04:08:36.722Z,4.75
2023-03-18T04:11:05.961Z,5.07
2023-03-18T04:13:33.705Z,5.53
2023-03-18T04:16:01.451Z,4.63
2023-03-18T04:18:29.064Z,4.88
2023-03-18T04:20:56.773Z,4.28
2023-03-18T04:23:24.380Z,4.32
2023-03-18T04:25:52.253Z,5.65
2023-03-18T04:28:21.191Z,4.82
2023-03-18T04:30:49.046Z,4.43
2023-03-18T04:33:16.707Z,6.18
2023-03-18T04:35:44.612Z,4.72
2023-03-18T04:38:12.874Z,4.72
2023-03-18T04:40:40.852Z,4.80
2023-03-18T04:43:09.897Z,5.15
2023-03-18T04:45:38.885Z,5.75
2023-03-18T04:48:06.871Z,4.95
2023-03-18T04:50:35.271Z,4.82
2023-03-18T04:53:03.397Z,5.65
2023-03-18T04:55:31.313Z,5.03
2023-03-18T04:57:59.078Z,5.40
2023-03-18T05:00:27.639Z,4.68
2023-03-18T05:02:56.615Z,4.25
2023-03-18T05:05:24.247Z,5.05
2023-03-18T05:07:52.016Z,4.82
2023-03-18T05:10:19.869Z,4.78
2023-03-18T05:12:48.522Z,4.28
2023-03-18T05:15:16.151Z,4.28
2023-03-18T05:17:43.948Z,5.03
2023-03-18T05:20:16.564Z,4.70
2023-03-18T05:22:44.189Z,3.95
2023-03-18T05:25:12.641Z,4.25
2023-03-18T05:27:40.502Z,4.63
2023-03-18T05:30:09.515Z,4.20
2023-03-18T05:32:38.025Z,4.28
2023-03-18T05:35:06.748Z,4.32
2023-03-18T05:37:36.885Z,4.25
2023-03-18T05:40:05.020Z,4.25
2023-03-18T05:42:35.169Z,4.65
2023-03-18T05:45:05.072Z,3.42
2023-03-18T05:47:32.961Z,3.63
2023-03-18T05:50:02.827Z,3.58
2023-03-18T05:52:33.121Z,3.65
2023-03-18T05:55:02.330Z,4.18
2023-03-18T05:57:32.647Z,4.03
2023-03-18T06:00:00.724Z,3.88
2023-03-18T06:02:28.400Z,3.60
2023-03-18T06:04:56.012Z,3.50
2023-03-18T06:07:23.643Z,4.38
2023-03-18T06:09:52.236Z,3.88
2023-03-18T06:12:23.900Z,4.00
2023-03-18T06:14:52.366Z,4.20
2023-03-18T06:17:20.291Z,3.65
2023-03-18T06:19:48.985Z,3.85
2023-03-18T06:22:17.460Z,3.80
2023-03-18T06:24:47.186Z,4.38
2023-03-18T06:27:15.922Z,3.90
2023-03-18T06:29:45.173Z,5.75
2023-03-18T06:32:13.080Z,4.47
2023-03-18T06:34:41.045Z,4.20
2023-03-18T06:37:09.601Z,4.30
2023-03-18T06:39:38.149Z,3.63
2023-03-18T06:42:07.018Z,4.05
2023-03-18T06:44:35.313Z,3.95
2023-03-18T06:47:04.309Z,3.90
2023-03-18T06:49:32.531Z,3.72
2023-03-18T06:52:00.412Z,3.72
2023-03-18T06:54:28.621Z,3.50
2023-03-18T06:56:56.228Z,4.35
2023-03-18T06:59:23.926Z,3.50
2023-03-18T07:01:51.627Z,3.40
2023-03-18T07:04:20.640Z,3.45
2023-03-18T07:06:48.289Z,3.33
2023-03-18T07:09:16.732Z,3.83
2023-03-18T07:11:45.681Z,3.38
2023-03-18T07:14:14.425Z,3.40
2023-03-18T07:16:44.732Z,3.42
2023-03-18T07:19:12.429Z,3.30
2023-03-18T07:21:42.916Z,3.08
2023-03-18T07:24:11.272Z,2.70
2023-03-18T07:26:39.295Z,3.55
2023-03-18T07:29:07.022Z,3.28
2023-03-18T07:31:34.813Z,3.13
2023-03-18T07:34:02.552Z,4.18
2023-03-18T07:36:30.329Z,3.83
2023-03-18T07:39:02.018Z,3.22
2023-03-18T07:41:29.981Z,3.45
2023-03-18T07:43:57.770Z,3.47
2023-03-18T07:46:25.817Z,3.25
2023-03-18T07:48:56.123Z,3.67
2023-03-18T07:51:23.780Z,3.10
2023-03-18T07:53:51.746Z,3.42
2023-03-18T07:56:21.257Z,4.25
2023-03-18T07:58:49.086Z,2.92
2023-03-18T08:01:18.362Z,2.90
2023-03-18T08:03:47.450Z,3.03
2023-03-18T08:06:16.360Z,3.22
2023-03-18T08:08:45.456Z,3.80
2023-03-18T08:11:14.723Z,3.38
2023-03-18T08:13:43.951Z,2.92
2023-03-18T08:16:12.223Z,2.58
2023-03-18T08:18:39.927Z,4.15
2023-03-18T08:21:07.793Z,2.70
2023-03-18T08:23:35.799Z,3.40
2023-03-18T08:26:03.658Z,2.38
2023-03-18T08:28:31.402Z,2.78
2023-03-18T08:31:01.164Z,3.05
2023-03-18T08:33:28.978Z,2.10
2023-03-18T08:35:57.813Z,3.00
2023-03-18T08:38:25.852Z,3.20
2023-03-18T08:40:53.817Z,3.30
2023-03-18T08:43:23.010Z,3.33
2023-03-18T08:45:54.535Z,3.10
2023-03-18T08:48:25.665Z,2.95
2023-03-18T08:50:53.562Z,3.38
2023-03-18T08:53:21.348Z,3.78
2023-03-18T08:55:49.508Z,3.65
2023-03-18T08:58:18.411Z,2.88
2023-03-18T09:00:46.755Z,3.83
2023-03-18T09:03:16.000Z,2.85
2023-03-18T09:05:48.869Z,2.92
2023-03-18T09:08:16.629Z,3.67
2023-03-18T09:10:47.244Z,3.25
2023-03-18T09:13:15.403Z,3.20
2023-03-18T09:15:43.164Z,3.05
2023-03-18T09:18:12.638Z,3.45
2023-03-18T09:20:40.553Z,4.07
2023-03-18T09:23:11.363Z,3.25
2023-03-18T09:25:39.922Z,3.60
2023-03-18T09:28:07.712Z,3.95
2023-03-18T09:30:39.385Z,3.50
2023-03-18T09:33:09.178Z,3.50
2023-03-18T09:35:38.483Z,3.92
2023-03-18T09:38:07.222Z,5.28
2023-03-18T09:40:41.327Z,5.30
2023-03-18T09:43:21.047Z,3.65
2023-03-18T09:46:00.553Z,4.38
2023-03-18T09:48:45.889Z,4.70
2023-03-18T09:51:25.369Z,6.78
2023-03-18T09:53:57.755Z,5.15
2023-03-18T09:56:30.548Z,3.63
2023-03-18T09:59:03.367Z,4.50
2023-03-18T10:01:34.739Z,7.15
2023-03-18T10:04:07.255Z,5.35
2023-03-18T10:06:39.169Z,11.07
2023-03-18T10:09:15.868Z,4.30
2023-03-18T10:11:47.326Z,4.28
2023-03-18T10:14:25.239Z,3.90
2023-03-18T10:17:04.673Z,3.75
2023-03-18T10:19:32.916Z,3.10
2023-03-18T10:22:18.140Z,4.00
2023-03-18T10:24:53.651Z,3.90
2023-03-18T10:27:38.295Z,4.07
2023-03-18T10:30:30.372Z,5.05
2023-03-18T10:33:08.202Z,3.75
2023-03-18T10:35:41.483Z,3.88
2023-03-18T10:38:18.936Z,4.22
2023-03-18T10:40:47.920Z,3.10
2023-03-18T10:43:19.431Z,3.75
2023-03-18T10:45:49.513Z,7.22
2023-03-18T10:48:26.546Z,4.25
2023-03-18T10:51:04.707Z,4.10
2023-03-18T10:53:39.036Z,3.75
2023-03-18T10:56:10.402Z,2.80
2023-03-18T10:58:41.493Z,2.90
2023-03-18T11:01:13.117Z,3.83
2023-03-18T11:03:45.043Z,4.70
2023-03-18T11:06:18.785Z,4.53
2023-03-18T11:08:49.825Z,4.68
2023-03-18T11:11:23.734Z,3.95
2023-03-18T11:13:55.711Z,3.47
2023-03-18T11:16:30.607Z,4.03
2023-03-18T11:19:00.015Z,3.33
2023-03-18T11:21:29.863Z,3.60
2023-03-18T11:24:20.935Z,3.40
2023-03-18T11:26:55.928Z,3.33
2023-03-18T11:29:29.034Z,3.28
2023-03-18T11:31:59.235Z,3.38
2023-03-18T11:34:29.956Z,3.22
2023-03-18T11:37:01.126Z,3.38
2023-03-18T11:39:31.572Z,3.70
2023-03-18T11:42:01.482Z,4.03
2023-03-18T11:44:32.808Z,3.28
2023-03-18T11:47:07.345Z,3.30
2023-03-18T11:49:35.458Z,3.10
2023-03-18T11:52:15.879Z,3.60
2023-03-18T11:55:15.693Z,3.00
2023-03-18T11:58:01.986Z,2.33
2023-03-18T12:00:38.967Z,3.78
2023-03-18T12:03:40.941Z,3.05
2023-03-18T12:06:20.171Z,2.70
2023-03-18T12:08:54.279Z,2.30
2023-03-18T12:11:32.972Z,3.03
2023-03-18T12:14:09.567Z,3.05
2023-03-18T12:16:50.455Z,2.85
2023-03-18T12:19:39.934Z,3.33
2023-03-18T12:22:43.287Z,2.75
2023-03-18T12:25:30.466Z,3.60
2023-03-18T12:28:04.150Z,3.13
2023-03-18T12:30:53.094Z,2.83
2023-03-18T12:33:37.116Z,3.47
2023-03-18T12:36:14.077Z,2.67
2023-03-18T12:39:11.617Z,3.60
2023-03-18T12:41:50.281Z,2.80
2023-03-18T12:44:33.484Z,3.20
2023-03-18T12:47:06.623Z,3.25
2023-03-18T12:49:39.887Z,2.85
2023-03-18T12:52:10.476Z,3.10
2023-03-18T12:54:42.912Z,3.90
2023-03-18T12:57:18.974Z,3.63
2023-03-18T12:59:53.335Z,3.13
2023-03-18T13:02:36.369Z,3.28
2023-03-18T13:05:14.185Z,2.83
2023-03-18T13:07:47.085Z,2.85
2023-03-18T13:10:22.491Z,3.47
2023-03-18T13:12:54.816Z,3.60
2023-03-18T13:15:29.949Z,2.83
2023-03-18T13:18:01.597Z,2.95
2023-03-18T13:20:34.761Z,2.38
2023-03-18T13:23:17.508Z,2.67
2023-03-18T13:25:57.346Z,2.67
2023-03-18T13:28:41.959Z,2.72
2023-03-18T13:31:15.463Z,2.30
2023-03-18T13:33:59.064Z,2.50
2023-03-18T13:36:55.549Z,2.22
2023-03-18T13:39:37.384Z,2.42
2023-03-18T13:42:21.595Z,2.15
2023-03-18T13:44:56.520Z,2.55
2023-03-18T13:47:25.478Z,2.80
2023-03-18T13:50:01.113Z,2.40
2023-03-18T13:52:36.998Z,2.55
2023-03-18T13:55:14.466Z,2.72
2023-03-18T13:57:48.920Z,2.65
2023-03-18T14:00:34.139Z,2.30
2023-03-18T14:03:06.388Z,3.03
2023-03-18T14:05:40.438Z,2.53
2023-03-18T14:08:37.128Z,2.47
2023-03-18T14:11:49.853Z,1.83
2023-03-18T14:15:06.187Z,2.20
2023-03-18T14:17:46.029Z,2.15
2023-03-18T14:20:30.022Z,2.88
2023-03-18T14:23:18.976Z,2.15
2023-03-18T14:25:54.980Z,2.30
2023-03-18T14:28:26.420Z,2.63
2023-03-18T14:31:22.184Z,2.35
2023-03-18T14:34:02.988Z,2.30
2023-03-18T14:37:18.487Z,3.08
2023-03-18T14:39:52.603Z,2.10
2023-03-18T14:42:31.775Z,2.55
2023-03-18T14:45:06.611Z,1.85
2023-03-18T14:47:46.186Z,2.03
2023-03-18T14:50:19.125Z,2.45
2023-03-18T14:52:54.037Z,1.77
2023-03-18T14:55:25.590Z,2.95
2023-03-18T14:57:54.539Z,3.92
2023-03-18T15:00:24.176Z,3.17
2023-03-18T15:03:01.005Z,2.95
2023-03-18T15:05:35.060Z,2.55
2023-03-18T15:08:07.199Z,2.53
2023-03-18T15:10:34.883Z,2.75
2023-03-18T15:13:07.611Z,3.15
2023-03-18T15:15:35.931Z,2.63
2023-03-18T15:18:12.330Z,3.15
2023-03-18T15:20:40.698Z,2.17
2023-03-18T15:23:10.156Z,2.58
2023-03-18T15:25:42.480Z,2.25
2023-03-18T15:28:19.130Z,2.20
2023-03-18T15:30:55.730Z,2.58
2023-03-18T15:33:26.036Z,2.40
2023-03-18T15:35:58.028Z,2.63
2023-03-18T15:38:31.118Z,3.08
2023-03-18T15:41:02.913Z,1.67
2023-03-18T15:43:35.810Z,1.90
2023-03-18T15:46:09.457Z,2.13
2023-03-18T15:48:40.186Z,1.73
2023-03-18T15:51:22.125Z,1.92
2023-03-18T15:53:53.512Z,1.63
2023-03-18T15:56:27.099Z,2.08
2023-03-18T15:59:03.910Z,1.88
2023-03-18T16:01:32.011Z,2.20
2023-03-18T16:04:02.700Z,2.97
2023-03-18T16:06:34.253Z,4.82
2023-03-18T16:09:02.256Z,5.00
2023-03-18T16:11:30.090Z,2.95
2023-03-18T16:13:59.704Z,2.80
2023-03-18T16:16:30.635Z,2.50
2023-03-18T16:18:59.629Z,2.45
2023-03-18T16:21:27.959Z,2.15
2023-03-18T16:23:55.878Z,2.03
2023-03-18T16:26:23.819Z,1.92
2023-03-18T16:28:51.674Z,2.17
2023-03-18T16:31:20.687Z,2.42
2023-03-18T16:33:52.784Z,2.78
2023-03-18T16:36:28.012Z,5.38
2023-03-18T16:38:56.091Z,3.88
2023-03-18T16:41:23.819Z,3.42
2023-03-18T16:43:52.614Z,2.50
2023-03-18T16:46:21.624Z,2.08
2023-03-18T16:48:50.379Z,3.10
2023-03-18T16:51:19.018Z,3.05
2023-03-18T16:53:46.662Z,3.10
2023-03-18T16:56:20.776Z,2.58
2023-03-18T16:58:48.598Z,2.38
2023-03-18T17:01:19.207Z,2.17
2023-03-18T17:03:48.306Z,1.88
2023-03-18T17:06:16.140Z,2.42
2023-03-18T17:08:43.850Z,2.53
2023-03-18T17:11:19.008Z,2.80
2023-03-18T17:13:47.142Z,2.83
2023-03-18T17:16:19.886Z,3.00
2023-03-18T17:18:49.469Z,2.83
2023-03-18T17:21:17.249Z,3.20
2023-03-18T17:23:45.733Z,2.55
2023-03-18T17:26:16.147Z,2.45
2023-03-18T17:28:46.621Z,2.58
2023-03-18T17:31:14.878Z,2.75
2023-03-18T17:33:43.000Z,3.58
2023-03-18T17:36:13.102Z,4.07
2023-03-18T17:38:41.816Z,3.92
2023-03-18T17:41:17.962Z,4.80
2023-03-18T17:43:45.993Z,3.88
2023-03-18T17:46:16.354Z,5.22
2023-03-18T17:48:44.207Z,4.95
2023-03-18T17:51:16.505Z,6.35
2023-03-18T17:53:47.824Z,5.28
2023-03-18T17:56:17.651Z,6.88
2023-03-18T17:58:47.054Z,8.07
2023-03-18T18:01:19.459Z,7.57
2023-03-18T18:03:48.337Z,6.70
2023-03-18T18:06:19.665Z,5.95
2023-03-18T18:08:51.400Z,4.95
2023-03-18T18:11:22.865Z,5.32
2023-03-18T18:13:52.490Z,4.30
2023-03-18T18:16:21.511Z,4.70
2023-03-18T18:18:50.291Z,3.50
2023-03-18T18:21:22.138Z,4.35
2023-03-18T18:23:50.322Z,4.32
2023-03-18T18:26:19.600Z,4.80
2023-03-18T18:28:49.334Z,3.70
2023-03-18T18:31:19.279Z,3.92
2023-03-18T18:33:49.825Z,5.22
2023-03-18T18:36:21.612Z,6.05
2023-03-18T18:38:50.691Z,7.45
2023-03-18T18:41:18.349Z,4.80
2023-03-18T18:43:47.341Z,5.43
2023-03-18T18:46:23.477Z,4.55
2023-03-18T18:48:51.792Z,5.15
2023-03-18T18:51:22.875Z,4.90
2023-03-18T18:53:53.371Z,4.32
2023-03-18T18:56:25.561Z,5.55
2023-03-18T18:58:54.031Z,6.10
2023-03-18T19:01:22.092Z,6.03
2023-03-18T19:03:49.891Z,4.72
2023-03-18T19:06:30.748Z,7.03
2023-03-18T19:09:00.461Z,5.13
2023-03-18T19:11:29.445Z,3.63
2023-03-18T19:14:18.124Z,3.83
2023-03-18T19:16:48.077Z,4.00
2023-03-18T19:19:18.043Z,4.30
2023-03-18T19:21:47.159Z,3.72
2023-03-18T19:24:27.161Z,3.25
2023-03-18T19:26:56.154Z,3.58
2023-03-18T19:29:24.591Z,4.15
2023-03-18T19:31:52.765Z,3.28
2023-03-18T19:34:21.680Z,3.30
2023-03-18T19:36:53.826Z,3.03
2023-03-18T19:39:22.863Z,3.58
2023-03-18T19:41:51.226Z,3.80
2023-03-18T19:44:20.403Z,4.78
2023-03-18T19:46:50.798Z,6.03
2023-03-18T19:49:21.650Z,5.80
2023-03-18T19:51:51.011Z,6.35
2023-03-18T19:54:27.024Z,6.20
2023-03-18T19:56:56.260Z,6.50
2023-03-18T19:59:33.512Z,6.25
2023-03-18T20:02:04.991Z,6.65
2023-03-18T20:04:32.717Z,6.82
2023-03-18T20:07:04.756Z,6.43
2023-03-18T20:09:32.567Z,6.22
2023-03-18T20:12:04.691Z,8.07
2023-03-18T20:14:40.152Z,7.03
2023-03-18T20:17:30.589Z,5.78
2023-03-18T20:19:58.856Z,5.40
2023-03-18T20:22:31.440Z,5.65
2023-03-18T20:24:59.407Z,4.70
2023-03-18T20:27:27.128Z,4.25
2023-03-18T20:29:54.702Z,3.65
2023-03-18T20:32:23.669Z,4.45
2023-03-18T20:34:51.549Z,3.67
2023-03-18T20:37:25.867Z,3.35
2023-03-18T20:39:55.061Z,3.42
2023-03-18T20:42:22.737Z,2.58
2023-03-18T20:44:50.517Z,3.28
2023-03-18T20:47:18.439Z,2.65
2023-03-18T20:49:46.417Z,2.78
2023-03-18T20:52:25.771Z,2.63
2023-03-18T20:54:56.484Z,2.83
2023-03-18T20:57:24.579Z,3.78
2023-03-18T20:59:52.738Z,3.85
2023-03-18T21:02:29.722Z,5.18
2023-03-18T21:04:58.246Z,3.03
2023-03-18T21:07:28.738Z,3.67
2023-03-18T21:09:59.908Z,3.38
2023-03-18T21:12:27.912Z,4.18
2023-03-18T21:14:55.907Z,9.20
2023-03-18T21:17:25.873Z,9.90
2023-03-18T21:20:04.931Z,7.03
2023-03-18T21:22:38.995Z,5.60
2023-03-18T21:25:12.435Z,5.32
2023-03-18T21:27:40.073Z,4.07
2023-03-18T21:30:09.912Z,5.00
2023-03-18T21:32:39.850Z,4.63
2023-03-18T21:35:15.664Z,4.65
2023-03-18T21:37:43.493Z,5.05
2023-03-18T21:40:16.921Z,3.60
2023-03-18T21:42:44.701Z,3.20
2023-03-18T21:45:14.352Z,4.53
2023-03-18T21:47:42.382Z,11.40
2023-03-18T21:50:20.572Z,17.38
2023-03-18T21:52:48.581Z,15.88
2023-03-18T21:55:17.955Z,12.35
2023-03-18T21:57:48.295Z,11.88
2023-03-18T22:00:19.815Z,14.35
2023-03-18T22:02:48.755Z,11.15
2023-03-18T22:05:19.116Z,9.57
2023-03-18T22:07:47.541Z,9.50
2023-03-18T22:10:17.905Z,7.15
2023-03-18T22:12:45.942Z,7.28
2023-03-18T22:15:34.886Z,6.10
2023-03-18T22:18:03.018Z,5.85
2023-03-18T22:20:31.397Z,6.68
2023-03-18T22:22:59.182Z,6.55
2023-03-18T22:25:31.343Z,6.28
2023-03-18T22:27:59.999Z,7.32
2023-03-18T22:30:30.191Z,5.80
2023-03-18T22:32:58.652Z,3.80
2023-03-18T22:35:27.796Z,3.75
2023-03-18T22:37:56.045Z,3.75
2023-03-18T22:40:25.839Z,3.40
2023-03-18T22:42:57.004Z,3.15
2023-03-18T22:45:27.287Z,2.85
2023-03-18T22:47:56.792Z,3.13
2023-03-18T22:50:25.902Z,2.92
2023-03-18T22:52:58.915Z,2.47
2023-03-18T22:55:29.330Z,2.40
2023-03-18T22:57:58.360Z,2.63
2023-03-18T23:00:33.709Z,2.95
2023-03-18T23:03:03.305Z,2.85
2023-03-18T23:05:32.740Z,2.65
2023-03-18T23:08:00.581Z,3.72
2023-03-18T23:10:28.421Z,3.72
2023-03-18T23:12:56.241Z,3.00
2023-03-18T23:15:25.473Z,3.00
2023-03-18T23:17:53.214Z,3.38
2023-03-18T23:20:20.892Z,2.72
2023-03-18T23:22:48.556Z,2.80
2023-03-18T23:25:18.429Z,3.17
2023-03-18T23:27:46.324Z,2.45
2023-03-18T23:30:14.874Z,3.15
2023-03-18T23:32:45.186Z,3.70
2023-03-18T23:35:13.323Z,2.90
2023-03-18T23:37:41.110Z,3.08
2023-03-18T23:40:10.155Z,3.42
2023-03-18T23:42:37.825Z,3.45
2023-03-18T23:45:06.642Z,3.20
2023-03-18T23:47:34.474Z,3.50
2023-03-18T23:50:03.663Z,3.80
2023-03-18T23:52:31.237Z,3.70
2023-03-18T23:54:59.207Z,3.70
2023-03-18T23:57:27.998Z,3.85
2023-03-18T23:59:55.752Z,3.63
